Time;durP1;ratioP1;P1;durP2;ratioP2;P2;SDS_P1;SDS_P2;PMS_P1;PMS_P2;Temp;Humidity;BMP_temperature;BMP_pressure;BME280_temperature;BME280_humidity;BME280_pressure;Samples;Min_cycle;Max_cycle;Signal;HPM_P1;HPM_P2
2023/12/04 00:03:06;;;;;;;10.80;7.93;;;;;;;-4.00;100.00;147665.44;10351404;28;20446;-82
2023/12/04 00:08:07;;;;;;;10.15;7.10;;;;;;;-4.11;100.00;147639.94;10331081;28;20050;-82
2023/12/04 00:13:09;;;;;;;10.20;7.88;;;;;;;-4.16;100.00;147627.19;10330595;28;20125;-83
2023/12/04 00:18:11;;;;;;;9.73;7.43;;;;;;;-4.24;100.00;147606.75;10331394;28;20509;-81
2023/12/04 00:23:13;;;;;;;8.45;6.35;;;;;;;-4.26;100.00;147601.63;10344871;28;20050;-83
2023/12/04 00:28:15;;;;;;;9.48;7.13;;;;;;;-4.18;100.00;147620.78;10341928;28;20042;-80
2023/12/04 00:33:17;;;;;;;8.20;7.22;;;;;;;-4.27;100.00;147599.09;10355520;28;20129;-81
2023/12/04 00:38:18;;;;;;;10.73;7.47;;;;;;;-4.39;100.00;147568.47;10348256;28;20049;-81
2023/12/04 00:43:20;;;;;;;7.93;7.05;;;;;;;-4.46;100.00;147550.66;10349999;28;20077;-81
2023/12/04 00:48:22;;;;;;;9.55;6.15;;;;;;;-4.16;100.00;147627.19;10345593;28;20094;-82
2023/12/04 00:53:24;;;;;;;9.45;6.10;;;;;;;-4.27;100.00;147597.81;10348223;28;20055;-81
2023/12/04 00:58:26;;;;;;;7.55;5.75;;;;;;;-4.37;100.00;147573.59;10347752;28;20046;-82
2023/12/04 01:03:28;;;;;;;7.97;6.63;;;;;;;-4.25;100.00;147604.22;10351112;28;20046;-81
2023/12/04 01:08:30;;;;;;;9.10;6.30;;;;;;;-4.46;99.70;147550.66;10367629;28;20066;-83
2023/12/04 01:13:32;;;;;;;8.95;6.47;;;;;;;-4.55;100.00;147527.72;10366534;28;20051;-81
2023/12/04 01:18:34;;;;;;;9.90;5.85;;;;;;;-4.59;99.75;147520.03;10362547;28;20069;-81
2023/12/04 01:23:36;;;;;;;6.78;5.00;;;;;;;-4.51;99.37;147537.91;10370165;28;20042;-83
2023/12/04 01:28:38;;;;;;;7.68;6.10;;;;;;;-4.56;99.58;147526.38;10334281;28;20125;-81
2023/12/04 01:33:39;;;;;;;8.65;5.60;;;;;;;-4.70;97.20;147491.97;10359663;28;20101;-82
2023/12/04 01:38:41;;;;;;;7.05;5.18;;;;;;;-4.98;100.00;147420.59;10350329;28;20049;-81
2023/12/04 01:43:43;;;;;;;8.43;5.95;;;;;;;-5.15;100.00;147379.81;10315808;28;20196;-82
2023/12/04 01:48:46;;;;;;;9.10;5.68;;;;;;;-5.31;100.00;147339.06;10360970;28;20034;-82
2023/12/04 01:53:48;;;;;;;8.73;5.80;;;;;;;-5.38;100.00;147321.22;10365887;28;20146;-81
2023/12/04 01:58:50;;;;;;;9.27;5.47;;;;;;;-5.32;100.00;147336.47;10360656;28;20105;-80
2023/12/04 02:03:53;;;;;;;6.35;5.15;;;;;;;-5.10;100.00;147392.56;10330709;28;20069;-83
2023/12/04 02:08:56;;;;;;;7.57;5.47;;;;;;;-4.77;98.73;147474.16;10349653;28;20044;-82
2023/12/04 02:13:58;;;;;;;8.38;5.88;;;;;;;-5.03;98.84;147407.88;10352400;28;20042;-82
2023/12/04 02:19:00;;;;;;;7.72;5.82;;;;;;;-5.18;99.64;147372.19;10337275;28;20076;-82
2023/12/04 02:24:05;;;;;;;7.00;4.90;;;;;;;-5.42;99.08;147311.00;10353067;28;20046;-83
2023/12/04 02:29:16;;;;;;;8.07;5.90;;;;;;;-5.66;100.00;147252.44;10346408;28;20097;-81
2023/12/04 02:34:19;;;;;;;6.30;4.72;;;;;;;-5.55;100.00;147277.91;10336317;28;20116;-80
2023/12/04 02:39:22;;;;;;;5.18;4.60;;;;;;;-5.42;98.52;147312.28;10355291;28;20045;-81
2023/12/04 02:44:23;;;;;;;5.53;3.83;;;;;;;-5.43;99.37;147309.75;10356261;28;20060;-81
2023/12/04 02:49:25;;;;;;;5.72;4.07;;;;;;;-5.51;99.22;147288.09;10356632;28;20482;-81
2023/12/04 02:54:28;;;;;;;6.05;3.78;;;;;;;-5.52;99.81;147285.56;10356568;28;20125;-79
2023/12/04 02:59:30;;;;;;;10.32;5.25;;;;;;;-5.12;98.14;147387.47;10379123;28;20066;-80
2023/12/04 03:04:34;;;;;;;6.53;5.32;;;;;;;-5.00;95.66;147415.47;10380260;28;20051;-80
2023/12/04 03:09:35;;;;;;;6.32;4.80;;;;;;;-5.21;96.19;147364.53;10378935;28;20061;-80
2023/12/04 03:14:50;;;;;;;5.78;3.95;;;;;;;-5.33;97.01;147333.94;10377790;28;20054;-80
2023/12/04 03:19:51;;;;;;;6.40;4.18;;;;;;;-5.36;98.30;147326.28;10376657;28;20053;-80
2023/12/04 03:24:53;;;;;;;5.75;3.65;;;;;;;-5.28;97.79;147346.69;10365476;28;20039;-79
2023/12/04 03:29:55;;;;;;;4.63;3.75;;;;;;;-5.21;97.41;147364.53;10366267;28;20057;-80
2023/12/04 03:34:57;;;;;;;7.43;4.93;;;;;;;-4.95;96.09;147429.53;10359227;28;20046;-81
2023/12/04 03:39:59;;;;;;;8.63;5.22;;;;;;;-4.93;94.32;147433.34;10362058;28;20045;-81
2023/12/04 03:45:01;;;;;;;6.03;4.40;;;;;;;-4.94;95.58;147430.81;10337082;28;20054;-80
2023/12/04 03:50:03;;;;;;;7.45;5.88;;;;;;;-4.93;96.38;147434.63;10335954;28;20445;-81
2023/12/04 03:55:05;;;;;;;7.55;5.57;;;;;;;-5.10;97.08;147392.56;10355721;28;20053;-80
2023/12/04 04:00:09;;;;;;;9.95;6.80;;;;;;;-4.92;96.79;147437.16;10353387;28;20097;-81
2023/12/04 04:05:14;;;;;;;8.10;6.60;;;;;;;-4.82;96.88;147461.41;10356211;28;20078;-81
2023/12/04 04:10:16;;;;;;;9.23;7.00;;;;;;;-4.94;97.99;147432.09;10338356;28;20461;-80
2023/12/04 04:15:17;;;;;;;11.27;7.20;;;;;;;-4.77;96.89;147474.16;10351706;28;20049;-80
2023/12/04 04:20:20;;;;;;;9.48;6.70;;;;;;;-4.66;96.32;147502.19;10333174;28;20164;-81
2023/12/04 04:25:23;;;;;;;7.22;5.45;;;;;;;-4.92;96.34;147437.16;10350101;28;20073;-79
2023/12/04 04:30:25;;;;;;;9.27;5.05;;;;;;;-5.13;97.20;147384.94;10349256;28;20046;-80
2023/12/04 04:35:28;;;;;;;6.65;4.65;;;;;;;-5.13;97.28;147383.66;10315713;28;20086;-82
2023/12/04 04:40:29;;;;;;;8.93;6.80;;;;;;;-5.18;97.54;147370.88;10346681;28;20101;-81
2023/12/04 04:45:31;;;;;;;11.70;6.88;;;;;;;-5.05;97.39;147404.00;10330285;28;20054;-80
2023/12/04 04:50:33;;;;;;;8.70;6.78;;;;;;;-5.10;98.35;147391.28;10349760;28;20046;-80
2023/12/04 04:55:35;;;;;;;11.07;7.43;;;;;;;-5.19;99.13;147369.63;10352525;28;20438;-81
2023/12/04 05:00:49;;;;;;;9.43;7.88;;;;;;;-5.02;100.00;147410.41;10344288;28;20026;-79
2023/12/04 05:05:51;;;;;;;11.38;8.23;;;;;;;-4.96;100.00;147425.69;10371454;28;20110;-79
2023/12/04 05:10:53;;;;;;;11.88;8.40;;;;;;;-4.93;100.00;147433.34;10338222;28;20069;-80
2023/12/04 05:15:55;;;;;;;16.38;8.77;;;;;;;-4.83;100.00;147460.09;10368731;28;20618;-81
2023/12/04 05:20:57;;;;;;;13.13;8.95;;;;;;;-4.69;100.00;147494.56;10328042;28;20045;-81
2023/12/04 05:25:58;;;;;;;14.57;9.85;;;;;;;-4.54;100.00;147531.50;10382726;28;20050;-81
2023/12/04 05:31:00;;;;;;;16.38;10.27;;;;;;;-4.53;99.87;147534.06;10344969;28;20047;-81
2023/12/04 05:36:03;;;;;;;14.52;9.25;;;;;;;-4.55;99.93;147527.72;10335433;28;20046;-80
2023/12/04 05:41:05;;;;;;;12.23;8.93;;;;;;;-4.54;100.00;147530.25;10357155;28;20038;-81
2023/12/04 05:46:06;;;;;;;13.35;8.45;;;;;;;-4.39;100.00;147569.75;10340945;28;20055;-80
2023/12/04 05:51:11;;;;;;;13.70;9.38;;;;;;;-4.31;99.26;147590.16;10357657;28;20449;-79
2023/12/04 05:56:12;;;;;;;18.17;10.98;;;;;;;-4.44;99.83;147555.72;10342197;28;20105;-80
2023/12/04 06:01:15;;;;;;;20.85;10.68;;;;;;;-4.23;99.91;147608.03;10359683;28;20094;-81
2023/12/04 06:06:17;;;;;;;15.38;9.80;;;;;;;-4.28;100.00;147595.28;10363884;28;20070;-79
2023/12/04 06:11:19;;;;;;;13.43;10.00;;;;;;;-4.26;100.00;147600.38;10361672;28;20038;-79
2023/12/04 06:16:20;;;;;;;15.18;9.77;;;;;;;-4.06;99.73;147652.66;10338003;28;20061;-80
2023/12/04 06:21:22;;;;;;;11.55;8.90;;;;;;;-4.12;99.60;147636.06;10345138;28;20050;-81
2023/12/04 06:26:24;;;;;;;13.85;9.65;;;;;;;-4.04;100.00;147656.47;10326382;28;20130;-79
2023/12/04 06:31:26;;;;;;;9.95;8.23;;;;;;;-3.83;97.04;147710.06;10326812;28;20061;-81
2023/12/04 06:36:35;;;;;;;16.40;8.98;;;;;;;-4.07;98.79;147650.13;10343401;28;20121;-81
2023/12/04 06:41:38;;;;;;;11.80;9.02;;;;;;;-3.97;98.28;147674.38;10358585;28;20054;-80
2023/12/04 06:46:40;;;;;;;15.82;9.60;;;;;;;-3.72;95.82;147735.56;10337747;28;20045;-81
2023/12/04 06:51:42;;;;;;;16.92;8.80;;;;;;;-3.84;96.50;147707.53;10323864;28;20117;-82
2023/12/04 06:56:44;;;;;;;13.00;8.07;;;;;;;-3.66;94.59;147752.19;10358026;28;20049;-82
2023/12/04 07:01:46;;;;;;;13.63;8.73;;;;;;;-3.86;95.21;147702.41;10371531;28;20070;-79
2023/12/04 07:06:48;;;;;;;9.60;7.88;;;;;;;-3.76;94.44;147725.38;10347308;28;20118;-81
2023/12/04 07:11:50;;;;;;;13.55;7.80;;;;;;;-3.83;94.37;147710.06;10335952;28;20046;-82
2023/12/04 07:16:52;;;;;;;11.73;9.48;;;;;;;-3.92;94.25;147685.84;10333505;28;20047;-81
2023/12/04 07:21:54;;;;;;;10.93;8.93;;;;;;;-3.77;94.29;147724.09;10352684;28;20137;-82
2023/12/04 07:26:56;;;;;;;13.38;9.32;;;;;;;-3.64;93.16;147757.28;10356460;28;20058;-82
2023/12/04 07:31:58;;;;;;;11.30;7.50;;;;;;;-3.69;92.43;147743.25;10357141;28;20085;-81
2023/12/04 07:37:00;;;;;;;10.27;7.60;;;;;;;-3.71;93.50;147739.44;10336534;28;20077;-81
2023/12/04 07:42:02;;;;;;;10.15;7.88;;;;;;;-3.69;93.25;147743.25;10353457;28;20050;-80
2023/12/04 07:47:15;;;;;;;15.23;8.95;;;;;;;-3.57;92.52;147775.16;10354186;28;20053;-81
2023/12/04 07:52:18;;;;;;;8.77;6.45;;;;;;;-3.36;90.53;147827.50;10338401;28;20046;-81
2023/12/04 07:57:20;;;;;;;8.80;7.45;;;;;;;-3.24;90.78;147856.81;10354202;28;20102;-80
2023/12/04 08:02:22;;;;;;;7.22;5.53;;;;;;;-3.11;89.49;147890.00;10340906;28;20138;-81
2023/12/04 08:07:24;;;;;;;7.68;5.57;;;;;;;-2.80;88.15;147967.91;10329298;28;20042;-80
2023/12/04 08:12:27;;;;;;;8.68;6.90;;;;;;;-2.87;88.25;147948.78;10365100;28;20069;-82
2023/12/04 08:17:29;;;;;;;7.68;6.22;;;;;;;-2.67;86.51;147999.84;10354348;28;20045;-80
2023/12/04 08:22:31;;;;;;;9.65;7.53;;;;;;;-2.81;86.57;147964.09;10375048;28;20430;-82
2023/12/04 08:27:33;;;;;;;6.65;5.93;;;;;;;-2.49;85.31;148044.53;10353362;28;20042;-81
2023/12/04 08:32:35;;;;;;;8.07;6.13;;;;;;;-2.44;83.93;148056.03;10355632;28;20046;-80
2023/12/04 08:37:36;;;;;;;9.50;5.90;;;;;;;-2.43;83.85;148059.91;10364144;28;20077;-81
2023/12/04 08:42:38;;;;;;;7.15;5.18;;;;;;;-2.50;83.45;148040.72;10371239;28;20055;-83
2023/12/04 08:47:40;;;;;;;5.57;4.78;;;;;;;-2.38;83.08;148072.66;10341469;28;20046;-82
2023/12/04 08:52:42;;;;;;;4.90;4.22;;;;;;;-2.19;82.45;148119.94;10342749;28;20172;-81
2023/12/04 08:57:44;;;;;;;5.20;4.70;;;;;;;-2.04;80.96;148158.28;10373971;28;20022;-81
2023/12/04 09:02:47;;;;;;;4.63;3.85;;;;;;;-1.90;81.09;148192.78;10359258;28;20066;-79
2023/12/04 09:07:58;;;;;;;5.30;4.10;;;;;;;-1.90;79.44;148191.50;10356756;28;20046;-82
2023/12/04 09:13:20;;;;;;;6.22;5.22;;;;;;;-1.88;79.12;148197.88;10330344;28;20042;-82
2023/12/04 09:18:22;;;;;;;6.80;5.50;;;;;;;-1.82;79.27;148211.94;10348637;28;20039;-82
2023/12/04 09:23:24;;;;;;;8.48;4.88;;;;;;;-1.93;79.39;148183.84;10348377;28;20046;-81
2023/12/04 09:28:27;;;;;;;7.53;4.70;;;;;;;-1.69;79.36;148245.16;10331546;28;20046;-82
2023/12/04 09:33:29;;;;;;;6.22;4.82;;;;;;;-1.62;78.53;148261.81;10329951;28;20054;-81
2023/12/04 09:38:30;;;;;;;5.43;4.05;;;;;;;-1.70;79.39;148242.63;10333044;28;20046;-80
2023/12/04 09:43:32;;;;;;;5.43;4.68;;;;;;;-1.47;77.89;148298.84;10336122;28;20042;-81
2023/12/04 09:48:35;;;;;;;6.38;4.93;;;;;;;-1.46;77.88;148301.41;10353939;28;20541;-82
2023/12/04 09:53:39;;;;;;;5.95;4.60;;;;;;;-1.52;77.96;148287.34;10355509;28;20486;-79
2023/12/04 09:58:41;;;;;;;4.85;3.90;;;;;;;-1.32;76.48;148338.50;10341370;28;20118;-82
2023/12/04 10:03:43;;;;;;;4.57;3.50;;;;;;;-1.25;76.94;148353.84;10360835;28;20117;-80
2023/12/04 10:08:45;;;;;;;5.45;4.07;;;;;;;-1.15;76.06;148379.41;10381928;28;20042;-79
2023/12/04 10:13:47;;;;;;;5.03;4.18;;;;;;;-1.35;77.22;148329.56;10362034;28;20054;-81
2023/12/04 10:19:21;;;;;;;7.43;5.18;;;;;;;-1.06;76.50;148403.75;10337018;28;20109;-81
2023/12/04 10:24:41;;;;;;;6.50;5.72;;;;;;;-1.31;77.60;148341.06;10335987;28;20150;-82
2023/12/04 10:29:45;;;;;;;5.80;5.30;;;;;;;-1.19;76.98;148369.22;10353692;28;20050;-80
2023/12/04 10:34:48;;;;;;;7.10;4.80;;;;;;;-1.12;77.06;148388.38;10335831;28;20510;-80
2023/12/04 10:39:51;;;;;;;6.13;5.05;;;;;;;-0.81;77.17;148465.13;10352680;28;20042;-82
2023/12/04 10:44:57;;;;;;;7.70;6.05;;;;;;;-0.87;75.76;148449.78;10344819;28;20048;-80
2023/12/04 10:49:59;;;;;;;7.60;5.75;;;;;;;-0.80;76.66;148467.66;10372984;28;20130;-82
2023/12/04 10:55:01;;;;;;;7.28;6.05;;;;;;;-1.02;75.93;148412.66;10357652;28;20046;-82
2023/12/04 11:00:08;;;;;;;9.07;7.00;;;;;;;-0.96;76.15;148428.03;10349534;28;20042;-80
2023/12/04 11:05:17;;;;;;;7.43;5.72;;;;;;;-0.84;74.82;148458.75;10377714;28;20046;-81
2023/12/04 11:10:24;;;;;;;8.38;6.47;;;;;;;-0.64;73.27;148508.63;10348181;28;20046;-81
2023/12/04 11:15:29;;;;;;;7.07;4.82;;;;;;;-0.35;71.60;148581.56;10345994;28;20049;-81
2023/12/04 11:20:36;;;;;;;7.57;5.17;;;;;;;-0.66;72.63;148502.25;10339384;28;20062;-79
2023/12/04 11:25:38;;;;;;;7.05;5.93;;;;;;;-0.60;72.50;148518.84;10349109;28;20151;-80
2023/12/04 11:30:41;;;;;;;7.00;4.75;;;;;;;-0.83;72.67;148460.03;10342293;28;20054;-79
2023/12/04 11:35:44;;;;;;;6.57;4.65;;;;;;;-0.93;74.35;148434.41;10345630;28;20469;-79
2023/12/04 11:40:46;;;;;;;7.28;4.57;;;;;;;-0.99;74.07;148420.34;10330870;28;20465;-80
2023/12/04 11:45:49;;;;;;;8.52;5.78;;;;;;;-1.04;74.82;148408.84;10330710;28;20065;-80
2023/12/04 11:50:51;;;;;;;7.40;5.32;;;;;;;-1.04;74.74;148407.56;10331493;28;20053;-81
2023/12/04 11:55:57;;;;;;;6.82;5.70;;;;;;;-1.04;74.30;148408.84;10329862;28;20056;-80
2023/12/04 12:01:00;;;;;;;7.60;6.03;;;;;;;-1.10;74.07;148392.22;10313359;28;20101;-82
2023/12/04 12:06:03;;;;;;;6.35;4.85;;;;;;;-1.09;75.35;148396.06;10348360;28;20047;-80
2023/12/04 12:11:06;;;;;;;7.20;5.82;;;;;;;-0.98;74.30;148421.63;10330706;28;20038;-81
2023/12/04 12:16:08;;;;;;;8.15;5.32;;;;;;;-0.98;73.93;148421.63;10314709;28;20046;-80
2023/12/04 12:21:10;;;;;;;6.88;5.35;;;;;;;-0.88;74.65;148447.25;10331145;28;20114;-80
2023/12/04 12:26:12;;;;;;;9.00;5.95;;;;;;;-0.89;74.02;148445.91;10333252;28;20054;-80
2023/12/04 12:31:14;;;;;;;6.05;5.05;;;;;;;-0.81;74.24;148465.13;10349775;28;20050;-79
2023/12/04 12:36:17;;;;;;;7.90;5.47;;;;;;;-0.88;72.70;148447.25;10365501;28;20031;-81
2023/12/04 12:41:20;;;;;;;5.80;4.53;;;;;;;-1.04;73.45;148407.56;10384204;28;20093;-80
2023/12/04 12:46:22;;;;;;;5.78;4.50;;;;;;;-0.79;73.28;148471.53;10384035;28;20030;-80
2023/12/04 12:51:24;;;;;;;6.38;4.75;;;;;;;-0.85;72.99;148454.88;10383250;28;20054;-80
2023/12/04 12:56:26;;;;;;;5.18;3.95;;;;;;;-1.06;73.74;148403.75;10361949;28;20046;-80
2023/12/04 13:01:32;;;;;;;7.22;5.95;;;;;;;-0.85;72.95;148456.16;10357239;28;20078;-81
2023/12/04 13:06:34;;;;;;;6.05;4.97;;;;;;;-0.94;74.95;148431.84;10358242;28;20062;-81
2023/12/04 13:11:37;;;;;;;7.13;5.43;;;;;;;-1.14;75.07;148383.28;10350550;28;20073;-81
2023/12/04 13:16:40;;;;;;;7.35;5.05;;;;;;;-1.06;75.82;148403.75;10353110;28;20062;-81
2023/12/04 13:21:41;;;;;;;7.03;5.65;;;;;;;-1.05;75.53;148406.28;10340329;28;20035;-81
2023/12/04 13:26:44;;;;;;;7.05;5.30;;;;;;;-1.13;75.12;148384.53;10357039;28;20482;-80
2023/12/04 13:31:49;;;;;;;7.65;5.68;;;;;;;-0.94;74.70;148433.13;10338677;28;20038;-80
2023/12/04 13:36:53;;;;;;;8.90;6.35;;;;;;;-1.09;75.93;148396.06;10338039;28;20051;-80
2023/12/04 13:47:15;;;;;;;10.73;6.45;;;;;;;-0.98;76.65;148421.63;10343042;28;20058;-81
2023/12/04 13:52:22;;;;;;;7.65;6.15;;;;;;;-1.02;75.83;148412.66;10337335;28;20065;-80
2023/12/04 13:57:33;;;;;;;7.13;6.07;;;;;;;-1.22;76.18;148361.53;10340013;28;20057;-79
2023/12/04 14:02:37;;;;;;;8.68;6.43;;;;;;;-1.12;75.93;148387.09;10320084;28;20070;-81
2023/12/04 14:07:39;;;;;;;13.90;7.85;;;;;;;-1.23;76.91;148360.25;10320355;28;20052;-81
2023/12/04 14:12:41;;;;;;;7.70;5.75;;;;;;;-1.27;76.36;148350.03;10353185;28;20110;-81
2023/12/04 14:17:43;;;;;;;9.05;6.22;;;;;;;-1.47;76.95;148298.84;10319865;28;20050;-81
2023/12/04 14:22:48;;;;;;;8.32;6.22;;;;;;;-1.45;76.63;148305.28;10355394;28;20046;-82
2023/12/04 14:27:50;;;;;;;7.57;6.25;;;;;;;-1.30;76.29;148342.34;10338578;28;20109;-80
2023/12/04 14:32:52;;;;;;;6.57;5.38;;;;;;;-1.38;74.87;148321.88;10360526;28;20046;-80
2023/12/04 14:37:53;;;;;;;8.07;6.13;;;;;;;-1.60;76.55;148268.16;10348294;28;20046;-81
2023/12/04 14:42:55;;;;;;;10.23;7.13;;;;;;;-1.47;77.24;148300.13;10368997;28;20053;-80
2023/12/04 14:47:58;;;;;;;9.07;6.70;;;;;;;-1.40;76.64;148318.06;10366403;28;20038;-82
2023/12/04 14:53:14;;;;;;;7.50;6.28;;;;;;;-1.68;76.79;148247.75;10375034;28;20054;-82
2023/12/04 15:19:36;;;;;;;13.88;8.65;;;;;;;-1.60;77.78;148266.88;10266498;29;20121;-81
2023/12/04 15:24:38;;;;;;;12.40;8.27;;;;;;;-1.61;77.08;148265.63;10273754;29;20472;-83
2023/12/04 15:29:41;;;;;;;9.30;7.65;;;;;;;-1.68;77.96;148246.44;10249922;29;20082;-81
2023/12/04 15:34:43;;;;;;;12.18;8.27;;;;;;;-1.69;77.60;148243.88;10249352;28;20614;-82
2023/12/04 15:39:45;;;;;;;10.57;7.82;;;;;;;-1.64;77.08;148256.66;10265151;28;20043;-82
2023/12/04 15:44:47;;;;;;;8.77;7.40;;;;;;;-1.74;77.62;148232.38;10330495;28;20061;-83
2023/12/04 15:49:49;;;;;;;8.35;6.32;;;;;;;-1.90;78.62;148192.78;10332324;28;20140;-82
2023/12/04 15:54:50;;;;;;;13.25;8.77;;;;;;;-1.57;77.71;148274.56;10350315;28;20042;-82
2023/12/04 15:59:52;;;;;;;7.28;5.90;;;;;;;-1.68;77.14;148247.75;10350980;28;20552;-80
2023/12/04 16:04:55;;;;;;;11.30;7.60;;;;;;;-1.60;77.18;148268.16;10345792;28;20046;-79
2023/12/04 16:09:59;;;;;;;9.95;7.82;;;;;;;-1.57;76.68;148274.56;10362439;28;20485;-82
2023/12/04 16:15:03;;;;;;;8.20;6.47;;;;;;;-1.53;76.63;148284.81;10353311;28;20054;-81
2023/12/04 16:20:10;;;;;;;7.07;6.35;;;;;;;-1.67;75.83;148250.28;10351007;28;20045;-81
2023/12/04 16:25:17;;;;;;;13.05;7.70;;;;;;;-1.58;77.59;148273.31;10345135;28;20121;-82
2023/12/04 16:30:21;;;;;;;14.48;8.23;;;;;;;-1.54;77.12;148283.53;10359913;28;20106;-80
2023/12/04 16:35:23;;;;;;;9.05;6.53;;;;;;;-1.55;76.09;148279.66;10373678;28;20047;-82
2023/12/04 16:40:25;;;;;;;8.25;6.47;;;;;;;-1.59;76.49;148270.75;10364610;28;20042;-80
2023/12/04 16:45:27;;;;;;;8.15;6.95;;;;;;;-1.62;75.93;148263.06;10371790;28;20074;-81
2023/12/04 16:50:31;;;;;;;7.43;6.28;;;;;;;-1.69;77.70;148245.16;10352135;28;20049;-81
2023/12/04 16:55:33;;;;;;;8.23;6.97;;;;;;;-1.69;77.13;148243.88;10325681;28;20050;-82
2023/12/04 17:00:35;;;;;;;7.97;6.50;;;;;;;-1.70;77.59;148242.63;10341337;28;20105;-83
2023/12/04 17:05:37;;;;;;;8.27;7.15;;;;;;;-1.79;79.04;148219.59;10359490;28;20051;-81
2023/12/04 17:10:39;;;;;;;8.75;7.10;;;;;;;-1.68;79.61;148246.44;10356223;28;20050;-83
2023/12/04 17:15:41;;;;;;;8.52;7.63;;;;;;;-1.57;78.76;148275.84;10338040;28;20077;-81
2023/12/04 17:20:43;;;;;;;8.20;6.47;;;;;;;-1.71;79.31;148240.06;10339132;28;20042;-82
2023/12/04 17:25:46;;;;;;;7.57;6.30;;;;;;;-1.66;79.39;148252.84;10362659;28;20089;-80
2023/12/04 17:30:48;;;;;;;8.88;6.82;;;;;;;-1.64;78.90;148256.66;10378237;28;20042;-82
2023/12/04 17:35:50;;;;;;;9.25;8.30;;;;;;;-1.79;79.22;148219.59;10354420;28;20050;-82
2023/12/04 17:40:52;;;;;;;9.45;7.80;;;;;;;-1.80;79.65;148217.06;10326349;28;20042;-81
2023/12/04 17:45:55;;;;;;;8.68;7.57;;;;;;;-1.76;79.63;148227.28;10360792;28;20062;-82
2023/12/04 17:50:57;;;;;;;13.82;9.40;;;;;;;-1.69;79.29;148243.88;10326989;28;20058;-80
2023/12/04 17:55:59;;;;;;;12.00;9.32;;;;;;;-1.70;78.59;148241.34;10355359;28;20046;-81
2023/12/04 18:01:01;;;;;;;8.95;8.05;;;;;;;-1.70;78.62;148241.34;10355437;28;20097;-80
2023/12/04 18:06:04;;;;;;;10.32;8.02;;;;;;;-2.05;80.08;148155.69;10333254;28;20081;-81
2023/12/04 18:11:07;;;;;;;10.68;8.80;;;;;;;-1.87;79.26;148200.41;10332941;28;20046;-82
2023/12/04 18:16:09;;;;;;;13.23;9.18;;;;;;;-1.84;78.52;148206.84;10374933;28;20049;-80
2023/12/04 18:21:10;;;;;;;11.05;8.55;;;;;;;-2.06;80.10;148151.88;10324369;28;20089;-81
2023/12/04 18:26:13;;;;;;;9.23;8.10;;;;;;;-2.12;80.76;148137.84;10349267;28;20039;-81
2023/12/04 18:31:16;;;;;;;9.68;8.68;;;;;;;-2.01;80.10;148163.38;10351570;28;20453;-79
2023/12/04 18:36:18;;;;;;;11.40;9.27;;;;;;;-1.93;80.05;148183.84;10334395;28;20046;-82
2023/12/04 18:41:22;;;;;;;9.68;8.68;;;;;;;-2.13;80.92;148133.97;10333158;28;20050;-81
2023/12/04 18:46:28;;;;;;;11.40;8.60;;;;;;;-1.96;80.45;148177.41;10350323;28;20054;-81
2023/12/04 18:51:31;;;;;;;12.00;8.57;;;;;;;-1.83;78.79;148210.66;10331841;28;20189;-81
2023/12/04 18:56:33;;;;;;;10.98;9.40;;;;;;;-2.02;80.73;148162.09;10349808;28;20081;-81
2023/12/04 19:01:35;;;;;;;9.82;8.73;;;;;;;-2.03;80.71;148159.56;10332256;28;20062;-81
2023/12/04 19:06:37;;;;;;;13.43;8.77;;;;;;;-2.06;80.68;148153.16;10332193;28;20057;-80
2023/12/04 19:11:39;;;;;;;9.00;8.10;;;;;;;-1.90;79.54;148191.50;10352077;28;20142;-82
2023/12/04 19:16:40;;;;;;;12.20;9.38;;;;;;;-1.82;78.35;148213.19;10334074;28;20050;-82
2023/12/04 19:21:42;;;;;;;9.30;8.38;;;;;;;-1.75;78.00;148229.84;10330189;28;20517;-80
2023/12/04 19:26:44;;;;;;;11.18;8.95;;;;;;;-2.01;79.27;148164.66;10330594;28;20050;-80
2023/12/04 19:31:46;;;;;;;10.75;9.35;;;;;;;-1.93;79.48;148183.84;10331300;28;20094;-81
2023/12/04 19:36:48;;;;;;;9.98;8.57;;;;;;;-1.72;77.78;148237.53;10346275;28;20503;-82
2023/12/04 19:41:50;;;;;;;13.60;8.70;;;;;;;-1.71;78.19;148238.78;10326371;28;20050;-80
2023/12/04 19:46:54;;;;;;;13.45;10.52;;;;;;;-1.91;79.87;148188.91;10344061;28;20454;-80
2023/12/04 19:51:56;;;;;;;10.82;9.02;;;;;;;-1.76;77.37;148226.00;10327297;28;20513;-83
2023/12/04 19:56:58;;;;;;;13.82;9.68;;;;;;;-1.82;78.11;148211.94;10346683;28;20042;-81
2023/12/04 20:02:03;;;;;;;11.05;8.27;;;;;;;-1.66;77.88;148251.56;10366285;28;20109;-82
2023/12/04 20:07:05;;;;;;;10.57;9.30;;;;;;;-1.70;77.63;148241.34;10348793;28;20047;-81
2023/12/04 20:12:07;;;;;;;9.90;8.88;;;;;;;-1.81;78.55;148214.50;10366577;28;20126;-80
2023/12/04 20:17:09;;;;;;;11.23;8.88;;;;;;;-1.66;77.19;148252.84;10336949;28;20102;-81
2023/12/04 20:22:13;;;;;;;10.88;9.50;;;;;;;-1.75;77.79;148229.84;10350389;28;20078;-80
2023/12/04 20:27:15;;;;;;;11.68;10.25;;;;;;;-1.80;77.90;148218.34;10373249;28;20046;-81
2023/12/04 20:32:16;;;;;;;12.50;9.23;;;;;;;-1.76;77.52;148227.28;10372917;28;20042;-82
2023/12/04 20:37:18;;;;;;;12.77;8.65;;;;;;;-1.63;78.04;148260.53;10345929;28;20050;-81
2023/12/04 20:42:20;;;;;;;9.05;8.10;;;;;;;-1.64;78.51;148257.97;10344337;28;20045;-81
2023/12/04 20:47:21;;;;;;;11.80;9.13;;;;;;;-1.76;77.99;148227.28;10346041;28;20042;-81
2023/12/04 20:52:23;;;;;;;10.32;8.70;;;;;;;-1.69;77.88;148245.16;10344833;28;20043;-82
2023/12/04 20:57:25;;;;;;;10.82;8.75;;;;;;;-1.76;78.60;148226.00;10325817;28;20133;-81
2023/12/04 21:02:27;;;;;;;18.33;9.48;;;;;;;-1.71;77.98;148240.06;10342108;28;20457;-81
2023/12/04 21:07:30;;;;;;;10.52;9.43;;;;;;;-1.78;79.22;148222.16;10324886;28;20065;-81
2023/12/04 21:12:32;;;;;;;11.02;9.35;;;;;;;-1.75;78.92;148229.84;10320923;28;20502;-79
2023/12/04 21:17:34;;;;;;;12.88;9.15;;;;;;;-1.65;77.89;148255.38;10342908;28;20046;-81
2023/12/04 21:22:36;;;;;;;10.65;8.77;;;;;;;-1.65;77.59;148255.38;10313365;28;20046;-83
2023/12/04 21:27:39;;;;;;;10.10;8.80;;;;;;;-1.72;78.63;148236.25;10332143;28;20470;-80
2023/12/04 21:32:43;;;;;;;10.75;8.77;;;;;;;-1.71;78.68;148238.78;10346529;28;20052;-81
2023/12/04 21:37:45;;;;;;;10.00;8.40;;;;;;;-1.62;77.84;148263.06;10331864;28;20061;-81
2023/12/04 21:42:47;;;;;;;12.27;10.23;;;;;;;-1.64;79.52;148256.66;10354113;28;20042;-81
2023/12/04 21:47:49;;;;;;;12.05;9.68;;;;;;;-1.68;79.59;148246.44;10361498;28;20137;-79
2023/12/04 21:52:51;;;;;;;16.58;9.32;;;;;;;-1.53;80.27;148284.81;10385435;28;20050;-81
2023/12/04 21:57:53;;;;;;;10.18;9.07;;;;;;;-1.61;78.98;148265.63;10377540;28;20046;-80
2023/12/04 22:02:55;;;;;;;11.25;9.40;;;;;;;-1.47;79.06;148298.84;10336165;28;20487;-80
2023/12/04 22:07:57;;;;;;;11.13;8.43;;;;;;;-1.69;81.31;148243.88;10380525;28;20053;-82
2023/12/04 22:12:59;;;;;;;11.98;9.05;;;;;;;-1.59;80.70;148269.47;10366306;28;20053;-80
2023/12/04 22:18:01;;;;;;;9.15;8.25;;;;;;;-1.70;80.97;148242.63;10370146;28;20058;-80
2023/12/04 22:23:04;;;;;;;12.75;10.35;;;;;;;-1.43;79.63;148309.09;10387473;28;20176;-80
2023/12/04 22:28:06;;;;;;;11.02;9.32;;;;;;;-1.35;78.87;148330.84;10375474;28;20511;-81
2023/12/04 22:33:08;;;;;;;10.30;8.75;;;;;;;-1.40;79.37;148318.06;10356333;28;20078;-80
2023/12/04 22:38:10;;;;;;;12.13;9.45;;;;;;;-1.53;79.93;148284.81;10349780;28;20046;-81
2023/12/04 22:43:12;;;;;;;12.90;8.20;;;;;;;-1.46;79.76;148302.72;10351301;28;20066;-81
2023/12/04 22:48:14;;;;;;;11.13;9.27;;;;;;;-1.57;79.85;148275.84;10333526;28;20046;-80
2023/12/04 22:53:16;;;;;;;11.55;9.10;;;;;;;-1.30;78.24;148342.34;10332643;28;20045;-79
2023/12/04 22:58:18;;;;;;;13.85;8.43;;;;;;;-1.25;77.88;148353.84;10349642;28;20074;-81
2023/12/04 23:03:19;;;;;;;11.25;9.52;;;;;;;-1.26;78.39;148352.56;10330966;28;20038;-82
2023/12/04 23:08:21;;;;;;;11.48;9.43;;;;;;;-1.35;79.43;148329.56;10346710;28;20494;-81
2023/12/04 23:13:23;;;;;;;10.10;8.65;;;;;;;-1.44;79.54;148307.81;10329302;28;20081;-81
2023/12/04 23:18:25;;;;;;;10.60;8.55;;;;;;;-1.27;78.14;148350.03;10329320;28;20038;-81
2023/12/04 23:23:27;;;;;;;11.15;9.52;;;;;;;-1.42;79.14;148311.63;10347489;28;20356;-80
2023/12/04 23:28:29;;;;;;;10.98;9.70;;;;;;;-1.27;78.67;148351.28;10344568;28;20126;-79